createdAt,value
2019-05-10T00:00:14.157Z,11.25
2019-05-10T00:05:14.130Z,11.25
2019-05-10T00:10:14.185Z,11.25
2019-05-10T00:15:14.167Z,11.25
2019-05-10T00:20:14.158Z,11.19
2019-05-10T00:25:14.081Z,11.19
2019-05-10T00:30:14.165Z,11.19
2019-05-10T00:35:14.129Z,11.19
2019-05-10T00:40:14.173Z,11.19
2019-05-10T00:45:14.140Z,11.19
2019-05-10T00:50:14.104Z,11.13
2019-05-10T00:55:18.715Z,11.13
2019-05-10T01:00:14.107Z,11.19
2019-05-10T01:05:14.113Z,11.13
2019-05-10T01:10:14.138Z,11.13
2019-05-10T01:15:14.062Z,11.13
2019-05-10T01:20:14.139Z,11.19
2019-05-10T01:25:14.050Z,11.25
2019-05-10T01:30:14.137Z,11.25
2019-05-10T01:35:14.117Z,11.25
2019-05-10T01:40:14.040Z,11.25
2019-05-10T01:45:14.091Z,11.25
2019-05-10T01:50:14.067Z,11.31
2019-05-10T01:55:14.071Z,11.25
2019-05-10T02:00:14.107Z,11.19
2019-05-10T02:05:14.067Z,11.13
2019-05-10T02:10:14.054Z,11.13
2019-05-10T02:15:14.092Z,11.06
2019-05-10T02:20:14.094Z,11
2019-05-10T02:25:14.015Z,10.94
2019-05-10T02:30:14.044Z,10.94
2019-05-10T02:35:14.090Z,10.81
2019-05-10T02:40:14.071Z,10.81
2019-05-10T02:45:14.039Z,10.88
2019-05-10T02:50:14.069Z,10.94
2019-05-10T02:55:14.056Z,11
2019-05-10T03:00:13.999Z,11
2019-05-10T03:05:14.114Z,11.06
2019-05-10T03:10:19.024Z,11
2019-05-10T03:15:14.059Z,11
2019-05-10T03:20:14.024Z,11
2019-05-10T03:25:14.035Z,11.06
2019-05-10T03:30:14.037Z,11.06
2019-05-10T03:35:14.014Z,11.13
2019-05-10T03:40:14.061Z,11.13
2019-05-10T03:45:14.003Z,11.06
2019-05-10T03:50:14.005Z,11.06
2019-05-10T03:55:13.992Z,11.06
2019-05-10T04:00:14.049Z,11.06
2019-05-10T04:05:14.064Z,11.06
2019-05-10T04:10:14.022Z,11.13
2019-05-10T04:15:13.990Z,11.13
2019-05-10T04:20:14.033Z,11.13
2019-05-10T04:25:14.023Z,11.13
2019-05-10T04:30:14.038Z,11.13
2019-05-10T04:35:14.025Z,11.13
2019-05-10T04:40:13.988Z,11.13
2019-05-10T04:45:13.937Z,11.13
2019-05-10T04:50:14.008Z,11.25
2019-05-10T04:55:14.011Z,11.44
2019-05-10T05:00:18.970Z,11.5
2019-05-10T05:05:13.920Z,11.63
2019-05-10T05:10:14.170Z,11.75
2019-05-10T05:15:13.985Z,11.69
2019-05-10T05:20:13.954Z,11.56
2019-05-10T05:25:14.009Z,11.5
2019-05-10T05:30:13.984Z,11.44
2019-05-10T05:35:15.452Z,11.5
2019-05-10T05:40:13.951Z,11.63
2019-05-10T05:45:13.970Z,12.81
2019-05-10T05:50:13.971Z,12.69
2019-05-10T05:55:13.889Z,12.56
2019-05-10T06:00:13.939Z,12.5
2019-05-10T06:05:32.143Z,12.75
2019-05-10T06:10:16.873Z,12.56
2019-05-10T06:15:13.917Z,12.63
2019-05-10T06:20:14.012Z,12.81
2019-05-10T06:25:13.950Z,13
2019-05-10T06:30:13.927Z,13.19
2019-05-10T06:35:18.941Z,13.31
2019-05-10T06:40:13.982Z,13.5
2019-05-10T06:45:16.022Z,14.38
2019-05-10T06:50:13.945Z,14.19
2019-05-10T06:55:13.951Z,15.94
2019-05-10T07:00:13.861Z,16.63
2019-05-10T07:05:13.969Z,16.69
2019-05-10T07:10:18.897Z,17.75
2019-05-10T07:15:13.895Z,15.94
2019-05-10T07:20:13.897Z,16.38
2019-05-10T07:25:13.877Z,18.25
2019-05-10T07:30:13.906Z,16.75
2019-05-10T07:35:13.931Z,15.19
2019-05-10T07:40:13.925Z,15.63
2019-05-10T07:45:18.597Z,16.19
2019-05-10T07:50:13.928Z,15.63
2019-05-10T07:55:17.835Z,15.56
2019-05-10T08:00:13.914Z,15.5
2019-05-10T08:05:15.422Z,15.5
2019-05-10T08:10:13.853Z,15.38
2019-05-10T08:15:13.820Z,16.25
2019-05-10T08:20:19.859Z,16.56
2019-05-10T08:25:15.286Z,16.69
2019-05-10T08:30:24.984Z,17.13
2019-05-10T08:35:16.940Z,17.81
2019-05-10T08:40:13.812Z,17.63
2019-05-10T08:45:13.830Z,16.44
2019-05-10T08:50:28.662Z,16
2019-05-10T08:55:13.849Z,15.38
2019-05-10T09:00:13.798Z,15.13
2019-05-10T09:05:13.840Z,14.88
2019-05-10T09:10:13.870Z,15.13
2019-05-10T09:15:13.928Z,15.31
2019-05-10T09:20:20.556Z,15.44
2019-05-10T09:25:13.837Z,15.44
2019-05-10T09:30:18.209Z,15.63
2019-05-10T09:35:13.865Z,15.25
2019-05-10T09:40:13.822Z,14.94
2019-05-10T09:45:13.850Z,14.75
2019-05-10T09:50:13.766Z,14.75
2019-05-10T09:55:14.906Z,14.81
2019-05-10T10:00:13.841Z,14.94
2019-05-10T10:05:13.843Z,15.19
2019-05-10T10:10:26.437Z,15.56
2019-05-10T10:15:19.072Z,16.06
2019-05-10T10:20:13.840Z,16.06
2019-05-10T10:25:13.783Z,15.88
2019-05-10T10:30:18.807Z,15.5
2019-05-10T10:35:18.714Z,15.31
2019-05-10T10:40:15.948Z,15.38
2019-05-10T10:45:13.809Z,15.69
2019-05-10T10:50:13.872Z,16.44
2019-05-10T10:55:13.811Z,16.25
2019-05-10T11:00:17.048Z,15.88
2019-05-10T11:05:13.760Z,15.69
2019-05-10T11:10:18.134Z,15.69
2019-05-10T11:15:16.374Z,15.94
2019-05-10T11:20:13.785Z,16.63
2019-05-10T11:25:13.745Z,16.88
2019-05-10T11:30:13.742Z,16.69
2019-05-10T11:35:18.845Z,16.44
2019-05-10T11:40:17.514Z,16.88
2019-05-10T11:45:13.715Z,16.81
2019-05-10T11:50:27.556Z,17
2019-05-10T11:55:13.784Z,17.56
2019-05-10T12:00:24.243Z,17.19
2019-05-10T12:05:19.781Z,17.19
2019-05-10T12:10:20.165Z,17.44
2019-05-10T12:15:14.170Z,16.94
2019-05-10T12:20:16.741Z,16.56
2019-05-10T12:25:35.383Z,16.63
2019-05-10T12:30:15.902Z,16.94
2019-05-10T12:35:13.679Z,17.19
2019-05-10T12:40:15.009Z,17.31
2019-05-10T12:45:13.737Z,17.25
2019-05-10T12:50:13.661Z,17
2019-05-10T12:55:13.704Z,16.81
2019-05-10T13:00:15.809Z,16.5
2019-05-10T13:05:15.521Z,16.63
2019-05-10T13:10:13.774Z,16.88
2019-05-10T13:15:13.691Z,16.19
2019-05-10T13:20:13.727Z,15.88
2019-05-10T13:25:13.727Z,15.75
2019-05-10T13:30:13.675Z,15.56
2019-05-10T13:35:13.814Z,15.25
2019-05-10T13:40:13.747Z,15.25
2019-05-10T13:45:13.663Z,15.31
2019-05-10T13:50:13.688Z,15.31
2019-05-10T13:55:13.705Z,15.19
2019-05-10T14:00:13.669Z,15.44
2019-05-10T14:05:17.390Z,15.69
2019-05-10T14:10:18.035Z,16
2019-05-10T14:15:13.916Z,16
2019-05-10T14:20:24.937Z,15.63
2019-05-10T14:25:13.770Z,15.06
2019-05-10T14:30:16.047Z,15.06
2019-05-10T14:35:16.238Z,15.06
2019-05-10T14:40:16.687Z,15.06
2019-05-10T14:45:13.701Z,15.06
2019-05-10T14:50:19.286Z,15.13
2019-05-10T14:55:13.631Z,15.25
2019-05-10T15:00:13.713Z,15.25
2019-05-10T15:05:15.596Z,15.81
2019-05-10T15:10:13.677Z,16.19
2019-05-10T15:15:13.632Z,16.44
2019-05-10T15:20:13.662Z,16.38
2019-05-10T15:25:13.595Z,16.06
2019-05-10T15:30:13.613Z,16.13
2019-05-10T15:35:13.647Z,16.5
2019-05-10T15:40:13.607Z,16.31
2019-05-10T15:45:14.500Z,16.5
2019-05-10T15:50:13.571Z,16.69
2019-05-10T15:55:16.411Z,16.69
2019-05-10T16:00:13.617Z,16.63
2019-05-10T16:05:23.751Z,16.81
2019-05-10T16:10:13.588Z,16.75
2019-05-10T16:15:19.811Z,16.56
2019-05-10T16:20:13.586Z,16.63
2019-05-10T16:25:13.549Z,16.5
2019-05-10T16:30:17.652Z,16.31
2019-05-10T16:35:14.644Z,16.25
2019-05-10T16:40:13.620Z,16.25
2019-05-10T16:45:13.590Z,16.13
2019-05-10T16:50:13.531Z,16
2019-05-10T16:55:13.628Z,15.88
2019-05-10T17:00:13.621Z,15.88
2019-05-10T17:05:15.612Z,15.44
2019-05-10T17:10:13.543Z,15.06
2019-05-10T17:15:13.614Z,14.56
2019-05-10T17:20:15.472Z,14.31
2019-05-10T17:25:13.545Z,14.06
2019-05-10T17:30:13.555Z,14
2019-05-10T17:35:13.566Z,13.81
2019-05-10T17:40:13.548Z,13.69
2019-05-10T17:45:13.535Z,13.5
2019-05-10T17:50:13.535Z,13.31
2019-05-10T17:55:16.597Z,13.13
2019-05-10T18:00:13.601Z,13.13
2019-05-10T18:05:13.524Z,13
2019-05-10T18:10:13.570Z,12.88
2019-05-10T18:15:13.527Z,12.75
2019-05-10T18:20:13.567Z,12.63
2019-05-10T18:25:19.995Z,12.44
2019-05-10T18:30:13.538Z,12.31
2019-05-10T18:35:14.980Z,12.13
2019-05-10T18:40:13.516Z,12
2019-05-10T18:45:13.508Z,11.88
2019-05-10T18:50:13.551Z,11.81
2019-05-10T18:55:13.510Z,11.69
2019-05-10T19:00:17.470Z,11.69
2019-05-10T19:05:13.594Z,11.63
2019-05-10T19:10:13.553Z,11.63
2019-05-10T19:15:15.472Z,11.56
2019-05-10T19:20:15.991Z,11.56
2019-05-10T19:25:14.321Z,11.5
2019-05-10T19:30:13.446Z,11.44
2019-05-10T19:35:13.496Z,11.25
2019-05-10T19:40:13.524Z,11.13
2019-05-10T19:45:19.080Z,11
2019-05-10T19:50:13.429Z,10.94
2019-05-10T19:55:19.224Z,10.94
2019-05-10T20:00:13.508Z,10.88
2019-05-10T20:05:13.496Z,10.75
2019-05-10T20:10:13.459Z,10.56
2019-05-10T20:15:13.422Z,10.44
2019-05-10T20:20:13.491Z,10.38
2019-05-10T20:25:13.485Z,10.38
2019-05-10T20:30:13.457Z,10.38
2019-05-10T20:35:13.439Z,10.38
2019-05-10T20:40:13.408Z,10.31
2019-05-10T20:45:13.481Z,10.31
2019-05-10T20:50:13.439Z,10.25
2019-05-10T20:55:13.481Z,10.13
2019-05-10T21:00:13.443Z,10.06
2019-05-10T21:05:13.392Z,9.94
2019-05-10T21:10:13.517Z,9.94
2019-05-10T21:15:13.457Z,10.19
2019-05-10T21:20:13.419Z,10.25
2019-05-10T21:25:13.431Z,10.31
2019-05-10T21:30:13.421Z,10.38
2019-05-10T21:35:13.456Z,10.19
2019-05-10T21:40:13.419Z,10.06
2019-05-10T21:45:13.408Z,9.94
2019-05-10T21:50:13.404Z,9.88
2019-05-10T21:55:13.402Z,9.88
2019-05-10T22:00:13.374Z,9.94
2019-05-10T22:05:13.430Z,9.94
2019-05-10T22:10:13.441Z,9.94
2019-05-10T22:15:13.348Z,9.81
2019-05-10T22:20:13.400Z,9.75
2019-05-10T22:25:13.378Z,9.69
2019-05-10T22:30:13.431Z,9.63
2019-05-10T22:35:13.424Z,9.56
2019-05-10T22:40:13.339Z,9.56
2019-05-10T22:45:13.373Z,9.56
2019-05-10T22:50:13.386Z,9.5
2019-05-10T22:55:13.412Z,9.69
2019-05-10T23:00:13.364Z,9.75
2019-05-10T23:05:13.336Z,9.81
2019-05-10T23:10:13.400Z,9.75
2019-05-10T23:15:13.320Z,9.81
2019-05-10T23:20:13.394Z,9.75
2019-05-10T23:25:13.337Z,9.75
2019-05-10T23:30:13.349Z,9.75
2019-05-10T23:35:13.301Z,9.75
2019-05-10T23:40:13.353Z,9.69
2019-05-10T23:45:13.376Z,9.69
2019-05-10T23:50:13.338Z,9.69
2019-05-10T23:55:13.306Z,9.75
